North Freedom, Wisconsin
Current Conditions -  °F | °C
As of 2:35 PM on Saturday 25 Oct 2014 (Local Time) from KDLL Reporting Station
Clear Clear  
Wind Chill: 66°   Ceiling: Unl
Heat Index: 66°   Visibility: 10mi
Dew Point: 25°   Wind: 20mph
Humidity: 21%   Direction: 290°WNW
Pressure: 29.93"   Gusts: 28mph
Location:  43.46°N, 89.87°W
Report Text: KDLL 251935Z AUTO 29017G24KT 10SM CLR 19/M04 A2993 RMK AO2 T01881041
Loading
Personal Weather Stations






























Interactive Weather Map
Tropical Storm Tracking
New forecast layout! Learn more

10-Day Weather Forecast

Advertisements
Track Severe Weather on mobile